Highland, Illinois
Current Conditions -  °F | °C
As of 2:58 AM on Saturday 29 Nov 2014 (Local Time) from KBLV Reporting Station
Clear Clear  
Wind Chill: 35°   Ceiling: Unl
Heat Index: 41°   Visibility: 10mi
Dew Point: 36°   Wind: 10mph
Humidity: 83%   Direction: 170°S
Pressure: 29.86"   Gusts: NA
Location:  38.74°N, 89.68°W
Report Text: KBLV 290858Z AUTO 17009KT 10SM CLR 05/02 A2986 RMK AO2 SLP117 T00510024 57014
Loading
Personal Weather Stations






























Interactive Weather Map New forecast layout! Learn more

10-Day Weather Forecast

Advertisements
Track Severe Weather on mobile